createdAt,value
2023-01-13T00:01:08.280Z,13.00
2023-01-13T00:03:35.704Z,13.75
2023-01-13T00:06:03.302Z,14.20
2023-01-13T00:08:30.099Z,14.60
2023-01-13T00:10:56.870Z,14.77
2023-01-13T00:13:26.691Z,14.88
2023-01-13T00:16:01.121Z,15.13
2023-01-13T00:18:28.302Z,14.85
2023-01-13T00:21:14.332Z,14.23
2023-01-13T00:23:41.756Z,14.05
2023-01-13T00:26:11.698Z,13.48
2023-01-13T00:28:38.772Z,17.63
2023-01-13T00:33:40.480Z,18.10
2023-01-13T00:36:10.619Z,17.75
2023-01-13T00:38:38.889Z,18.25
2023-01-13T00:41:08.051Z,16.30
2023-01-13T00:43:36.349Z,17.08
2023-01-13T00:46:05.059Z,18.25
2023-01-13T00:48:32.531Z,16.08
2023-01-13T00:51:03.248Z,16.55
2023-01-13T00:53:34.676Z,16.33
2023-01-13T00:56:05.703Z,17.10
2023-01-13T00:58:34.429Z,16.75
2023-01-13T01:01:02.516Z,16.17
2023-01-13T01:03:30.282Z,15.88
2023-01-13T01:06:03.386Z,16.92
2023-01-13T01:08:30.158Z,16.20
2023-01-13T01:11:07.974Z,16.15
2023-01-13T01:13:35.545Z,17.20
2023-01-13T01:16:09.355Z,15.95
2023-01-13T01:18:38.203Z,16.48
2023-01-13T01:21:05.905Z,15.23
2023-01-13T01:23:34.231Z,14.93
2023-01-13T01:26:06.053Z,15.82
2023-01-13T01:28:34.344Z,15.30
2023-01-13T01:31:05.375Z,15.07
2023-01-13T01:33:32.100Z,15.52
2023-01-13T01:36:04.900Z,15.07
2023-01-13T01:38:31.633Z,14.70
2023-01-13T01:40:58.528Z,14.82
2023-01-13T01:44:02.551Z,14.98
2023-01-13T01:46:32.429Z,15.57
2023-01-13T01:49:19.215Z,14.65
2023-01-13T01:51:55.025Z,14.85
2023-01-13T01:54:44.634Z,15.00
2023-01-13T01:57:17.732Z,15.20
2023-01-13T01:59:44.925Z,15.57
2023-01-13T02:02:12.141Z,14.95
2023-01-13T02:04:43.202Z,15.18
2023-01-13T02:07:09.983Z,14.65
2023-01-13T02:09:36.930Z,16.40
2023-01-13T02:12:22.196Z,16.80
2023-01-13T02:14:49.053Z,16.52
2023-01-13T02:17:21.647Z,17.67
2023-01-13T02:19:54.331Z,17.75
2023-01-13T02:22:29.872Z,18.98
2023-01-13T02:25:15.426Z,18.65
2023-01-13T02:27:53.975Z,17.80
2023-01-13T02:30:51.937Z,15.77
2023-01-13T02:33:37.245Z,15.55
2023-01-13T02:36:12.933Z,15.20
2023-01-13T02:38:57.172Z,16.08
2023-01-13T02:42:17.896Z,15.90
2023-01-13T02:44:48.554Z,15.20
2023-01-13T02:47:21.850Z,15.18
2023-01-13T02:49:52.794Z,16.60
2023-01-13T02:52:39.703Z,16.08
2023-01-13T02:55:25.999Z,13.63
2023-01-13T02:57:54.631Z,15.63
2023-01-13T03:00:23.266Z,14.10
2023-01-13T03:02:50.142Z,17.92
2023-01-13T03:05:17.429Z,17.95
2023-01-13T03:07:56.971Z,16.02
2023-01-13T03:10:47.839Z,15.93
2023-01-13T03:13:36.493Z,16.85
2023-01-13T03:16:17.696Z,16.80
2023-01-13T03:18:55.727Z,16.52
2023-01-13T03:21:32.774Z,16.27
2023-01-13T03:24:27.685Z,16.45
2023-01-13T03:27:16.547Z,17.73
2023-01-13T03:29:50.461Z,16.13
2023-01-13T03:32:24.389Z,17.10
2023-01-13T03:34:55.286Z,17.20
2023-01-13T03:37:33.965Z,17.30
2023-01-13T03:40:07.544Z,16.25
2023-01-13T03:42:37.014Z,15.55
2023-01-13T03:45:14.387Z,15.02
2023-01-13T03:47:59.855Z,14.95
2023-01-13T03:50:41.021Z,14.40
2023-01-13T03:53:13.981Z,15.10
2023-01-13T03:55:47.588Z,13.88
2023-01-13T03:58:25.196Z,13.85
2023-01-13T04:01:33.637Z,14.13
2023-01-13T04:04:08.273Z,12.20
2023-01-13T04:06:49.253Z,12.60
2023-01-13T04:09:31.219Z,13.00
2023-01-13T04:12:48.846Z,13.50
2023-01-13T04:15:22.692Z,12.50
2023-01-13T04:17:50.359Z,12.90
2023-01-13T04:20:17.810Z,13.27
2023-01-13T04:22:44.557Z,12.90
2023-01-13T04:25:11.613Z,13.65
2023-01-13T04:30:06.029Z,14.00
2023-01-13T04:32:32.800Z,13.75
2023-01-13T04:34:59.519Z,14.45
2023-01-13T04:37:26.274Z,14.23
2023-01-13T04:39:53.036Z,13.27
2023-01-13T04:42:19.867Z,12.40
2023-01-13T04:44:46.579Z,12.32
2023-01-13T04:47:13.425Z,12.43
2023-01-13T04:49:40.192Z,12.20
2023-01-13T04:52:07.216Z,12.30
2023-01-13T04:54:34.000Z,11.57
2023-01-13T04:57:00.800Z,11.23
2023-01-13T04:59:27.585Z,10.57
2023-01-13T05:01:54.363Z,11.07
2023-01-13T05:04:21.390Z,10.55
2023-01-13T05:06:48.253Z,11.02
2023-01-13T05:09:15.838Z,10.27
2023-01-13T05:12:01.661Z,10.85
2023-01-13T05:14:47.207Z,12.10
2023-01-13T05:17:20.301Z,9.90
2023-01-13T05:19:47.568Z,9.52
2023-01-13T05:22:33.525Z,9.50
2023-01-13T05:25:19.069Z,8.90
2023-01-13T05:27:45.829Z,10.18
2023-01-13T05:30:12.843Z,9.25
2023-01-13T05:32:39.921Z,9.63
2023-01-13T05:35:07.010Z,10.93
2023-01-13T05:37:33.782Z,10.10
2023-01-13T05:40:19.371Z,10.98
2023-01-13T05:43:04.891Z,10.65
2023-01-13T05:45:32.125Z,11.27
2023-01-13T05:47:59.103Z,11.40
2023-01-13T05:50:25.897Z,10.57
2023-01-13T05:52:52.749Z,11.30
2023-01-13T05:55:19.622Z,10.63
2023-01-13T05:57:46.420Z,10.82
2023-01-13T06:00:13.717Z,10.98
2023-01-13T06:02:40.505Z,10.88
2023-01-13T06:05:07.848Z,11.45
2023-01-13T06:07:34.676Z,11.63
2023-01-13T06:10:09.652Z,11.80
2023-01-13T06:12:37.075Z,12.38
2023-01-13T06:15:04.089Z,11.68
2023-01-13T06:17:30.999Z,10.90
2023-01-13T06:19:57.768Z,11.93
2023-01-13T06:22:28.491Z,11.40
2023-01-13T06:24:55.467Z,11.80
2023-01-13T06:27:23.129Z,11.73
2023-01-13T06:29:50.092Z,11.27
2023-01-13T06:32:21.144Z,11.55
2023-01-13T06:34:54.212Z,12.07
2023-01-13T06:37:25.432Z,10.75
2023-01-13T06:39:58.163Z,11.00
2023-01-13T06:42:46.768Z,10.50
2023-01-13T06:45:13.984Z,11.30
2023-01-13T06:47:41.356Z,11.52
2023-01-13T06:50:08.780Z,11.55
2023-01-13T06:52:35.605Z,10.90
2023-01-13T06:55:03.038Z,11.02
2023-01-13T06:57:29.883Z,10.05
2023-01-13T06:59:56.704Z,10.77
2023-01-13T07:02:23.748Z,10.10
2023-01-13T07:07:17.204Z,10.55
2023-01-13T07:09:43.973Z,10.93
2023-01-13T07:12:11.737Z,10.43
2023-01-13T07:14:57.276Z,10.90
2023-01-13T07:17:27.065Z,10.50
2023-01-13T07:19:53.857Z,10.70
2023-01-13T07:22:20.715Z,8.63
2023-01-13T07:24:47.489Z,10.45
2023-01-13T07:27:14.264Z,10.55
2023-01-13T07:29:41.337Z,10.68
2023-01-13T07:32:08.183Z,9.70
2023-01-13T07:34:34.951Z,9.60
2023-01-13T07:37:02.009Z,10.02
2023-01-13T07:39:28.844Z,9.45
2023-01-13T07:42:14.132Z,9.65
2023-01-13T07:44:40.925Z,9.45
2023-01-13T07:47:10.391Z,10.13
2023-01-13T07:49:37.390Z,10.00
2023-01-13T07:52:04.419Z,10.13
2023-01-13T07:54:40.298Z,10.52
2023-01-13T07:57:08.214Z,9.80
2023-01-13T07:59:35.122Z,10.10
2023-01-13T08:02:02.009Z,9.82
2023-01-13T08:06:55.616Z,10.15
2023-01-13T08:09:22.442Z,10.05
2023-01-13T08:12:09.159Z,9.55
2023-01-13T08:14:36.088Z,10.50
2023-01-13T08:17:02.817Z,10.25
2023-01-13T08:19:29.529Z,11.40
2023-01-13T08:21:57.077Z,10.75
2023-01-13T08:24:23.826Z,12.07
2023-01-13T08:26:50.607Z,11.60
2023-01-13T08:29:17.512Z,11.88
2023-01-13T08:31:45.322Z,12.00
2023-01-13T08:34:12.098Z,12.02
2023-01-13T08:36:38.869Z,12.40
2023-01-13T08:39:05.624Z,11.70
2023-01-13T08:41:51.176Z,11.38
2023-01-13T08:44:17.951Z,11.23
2023-01-13T08:46:44.874Z,11.60
2023-01-13T08:49:11.822Z,12.02
2023-01-13T08:51:38.893Z,12.05
2023-01-13T08:56:35.263Z,11.57
2023-01-13T08:59:02.911Z,13.13
2023-01-13T09:01:29.889Z,12.13
2023-01-13T09:06:23.716Z,12.63
2023-01-13T09:08:50.572Z,13.82
2023-01-13T09:11:43.523Z,13.60
2023-01-13T09:14:10.381Z,14.38
2023-01-13T09:16:37.112Z,14.75
2023-01-13T09:19:03.881Z,14.45
2023-01-13T09:21:30.696Z,15.27
2023-01-13T09:23:57.488Z,15.50
2023-01-13T09:26:24.254Z,17.55
2023-01-13T09:28:51.105Z,18.98
2023-01-13T09:31:17.914Z,17.25
2023-01-13T09:34:03.293Z,16.75
2023-01-13T09:36:30.030Z,16.65
2023-01-13T09:38:56.842Z,16.77
2023-01-13T09:41:44.945Z,18.35
2023-01-13T09:44:20.051Z,16.50
2023-01-13T09:46:52.467Z,17.15
2023-01-13T09:49:26.922Z,17.08
2023-01-13T09:52:04.495Z,18.45
2023-01-13T09:54:38.579Z,16.55
2023-01-13T09:57:14.528Z,17.55
2023-01-13T09:59:42.246Z,17.65
2023-01-13T10:02:20.997Z,17.85
2023-01-13T10:05:09.760Z,17.85
2023-01-13T10:07:39.919Z,17.45
2023-01-13T10:10:15.348Z,17.65
2023-01-13T10:13:02.026Z,16.83
2023-01-13T10:15:28.766Z,18.23
2023-01-13T10:18:09.266Z,18.40
2023-01-13T10:20:50.148Z,18.50
2023-01-13T10:24:01.670Z,17.83
2023-01-13T10:29:28.018Z,19.25
2023-01-13T10:31:57.070Z,18.50
2023-01-13T10:34:25.365Z,18.35
2023-01-13T10:37:25.960Z,18.60
2023-01-13T10:39:56.481Z,19.02
2023-01-13T10:42:24.263Z,19.38
2023-01-13T10:44:54.428Z,20.27
2023-01-13T10:47:21.259Z,19.45
2023-01-13T10:50:09.648Z,19.10
2023-01-13T10:52:42.806Z,18.60
2023-01-13T10:55:25.333Z,19.83
2023-01-13T10:57:52.178Z,18.63
2023-01-13T11:00:29.498Z,19.10
2023-01-13T11:03:23.655Z,20.42
2023-01-13T11:06:00.488Z,20.52
2023-01-13T11:08:30.896Z,20.58
2023-01-13T11:10:59.568Z,21.15
2023-01-13T11:14:02.110Z,20.35
2023-01-13T11:16:29.318Z,21.05
2023-01-13T11:19:14.078Z,21.38
2023-01-13T11:21:56.099Z,21.77
2023-01-13T11:24:42.838Z,22.13
2023-01-13T11:27:21.154Z,21.13
2023-01-13T11:30:14.443Z,20.20
2023-01-13T11:33:03.161Z,19.88
2023-01-13T11:35:34.515Z,18.75
2023-01-13T11:38:31.881Z,18.92
2023-01-13T11:41:13.541Z,19.08
2023-01-13T11:43:44.564Z,18.55
2023-01-13T11:46:11.464Z,18.13
2023-01-13T11:48:42.322Z,17.45
2023-01-13T11:51:32.183Z,15.23
2023-01-13T11:54:14.041Z,15.07
2023-01-13T11:57:16.217Z,14.45
2023-01-13T12:00:01.531Z,14.75
2023-01-13T12:02:47.023Z,15.63
2023-01-13T12:05:59.560Z,15.30
2023-01-13T12:08:57.532Z,15.77
2023-01-13T12:12:13.796Z,15.55
2023-01-13T12:14:40.445Z,15.00
2023-01-13T12:17:18.491Z,15.48
2023-01-13T12:19:48.845Z,14.77
2023-01-13T12:22:28.462Z,16.08
2023-01-13T12:24:57.882Z,15.15
2023-01-13T12:27:33.203Z,16.20
2023-01-13T12:30:03.526Z,16.80
2023-01-13T12:32:36.378Z,15.57
2023-01-13T12:35:24.696Z,16.60
2023-01-13T12:38:02.721Z,17.05
2023-01-13T12:41:07.944Z,16.60
2023-01-13T12:43:55.451Z,17.35
2023-01-13T12:46:22.136Z,17.10
2023-01-13T12:48:50.835Z,17.83
2023-01-13T12:51:28.388Z,17.15
2023-01-13T12:53:56.522Z,17.02
2023-01-13T12:56:38.905Z,17.67
2023-01-13T12:59:18.874Z,16.00
2023-01-13T13:02:09.728Z,15.77
2023-01-13T13:04:52.312Z,15.43
2023-01-13T13:07:26.634Z,15.07
2023-01-13T13:10:16.339Z,16.33
2023-01-13T13:13:01.499Z,14.80
2023-01-13T13:15:34.146Z,14.45
2023-01-13T13:18:23.894Z,13.77
2023-01-13T13:21:09.142Z,12.38
2023-01-13T13:23:47.941Z,12.98
2023-01-13T13:26:26.401Z,12.43
2023-01-13T13:29:11.847Z,12.00
2023-01-13T13:31:44.769Z,12.35
2023-01-13T13:34:24.934Z,12.70
2023-01-13T13:37:28.333Z,13.15
2023-01-13T13:40:13.990Z,12.18
2023-01-13T13:43:07.148Z,12.82
2023-01-13T13:45:52.750Z,12.80
2023-01-13T13:48:27.245Z,11.68
2023-01-13T13:51:02.786Z,12.32
2023-01-13T13:53:36.142Z,12.05
2023-01-13T13:56:07.511Z,11.23
2023-01-13T13:58:37.031Z,10.38
2023-01-13T14:01:05.420Z,11.05
2023-01-13T14:03:35.367Z,10.20
2023-01-13T14:06:06.622Z,10.10
2023-01-13T14:08:35.730Z,10.55
2023-01-13T14:11:16.347Z,9.88
2023-01-13T14:13:43.129Z,10.10
2023-01-13T14:16:13.010Z,10.85
2023-01-13T14:18:47.180Z,9.90
2023-01-13T14:21:29.930Z,9.98
2023-01-13T14:24:14.042Z,9.65
2023-01-13T14:26:41.004Z,9.80
2023-01-13T14:31:52.644Z,9.27
2023-01-13T14:34:32.345Z,9.52
2023-01-13T14:37:00.845Z,11.18
2023-01-13T14:39:40.688Z,9.73
2023-01-13T14:42:16.308Z,9.43
2023-01-13T14:44:48.543Z,8.93
2023-01-13T14:47:22.952Z,9.23
2023-01-13T14:50:06.783Z,9.35
2023-01-13T14:52:36.804Z,9.55
2023-01-13T14:55:10.071Z,9.77
2023-01-13T15:00:15.362Z,9.00
2023-01-13T15:03:00.072Z,10.70
2023-01-13T15:05:26.846Z,10.38
2023-01-13T15:07:57.520Z,9.57
2023-01-13T15:10:33.537Z,9.50
2023-01-13T15:13:03.674Z,10.10
2023-01-13T15:15:33.870Z,9.20
2023-01-13T15:18:21.906Z,9.30
2023-01-13T15:20:50.846Z,9.95
2023-01-13T15:23:19.050Z,9.35
2023-01-13T15:25:46.638Z,9.57
2023-01-13T15:28:27.574Z,10.15
2023-01-13T15:30:58.182Z,9.75
2023-01-13T15:33:25.043Z,9.68
2023-01-13T15:35:53.390Z,9.80
2023-01-13T15:38:22.634Z,9.40
2023-01-13T15:40:51.161Z,10.02
2023-01-13T15:43:42.489Z,9.50
2023-01-13T15:46:37.043Z,9.48
2023-01-13T15:49:29.917Z,9.65
2023-01-13T15:51:56.712Z,9.00
2023-01-13T15:54:24.689Z,9.57
2023-01-13T15:56:52.380Z,9.93
2023-01-13T15:59:23.330Z,10.75
2023-01-13T16:01:50.140Z,10.38
2023-01-13T16:06:44.538Z,11.90
2023-01-13T16:09:15.306Z,11.50
2023-01-13T16:11:42.105Z,11.55
2023-01-13T16:14:08.976Z,12.93
2023-01-13T16:19:02.822Z,11.95
2023-01-13T16:21:29.598Z,12.63
2023-01-13T16:23:56.432Z,14.77
2023-01-13T16:26:26.579Z,13.20
2023-01-13T16:28:55.506Z,13.13
2023-01-13T16:31:32.055Z,12.52
2023-01-13T16:34:00.880Z,12.50
2023-01-13T16:36:29.230Z,14.68
2023-01-13T16:38:57.514Z,13.57
2023-01-13T16:41:27.426Z,13.88
2023-01-13T16:43:54.283Z,13.45
2023-01-13T16:46:29.057Z,14.02
2023-01-13T16:49:01.701Z,13.88
2023-01-13T16:51:28.529Z,13.98
2023-01-13T16:53:55.356Z,13.60
2023-01-13T16:56:30.540Z,16.42
2023-01-13T16:58:59.813Z,19.17
2023-01-13T17:01:29.383Z,19.15
2023-01-13T17:03:57.314Z,17.55
2023-01-13T17:06:35.984Z,19.50
2023-01-13T17:09:07.952Z,18.67
2023-01-13T17:11:35.003Z,18.38
2023-01-13T17:14:18.440Z,18.02
2023-01-13T17:16:46.934Z,18.10
2023-01-13T17:19:14.206Z,18.77
2023-01-13T17:21:41.137Z,18.55
2023-01-13T17:26:43.915Z,17.25
2023-01-13T17:29:14.906Z,17.63
2023-01-13T17:31:42.144Z,17.58
2023-01-13T17:34:10.970Z,17.73
2023-01-13T17:36:37.817Z,17.10
2023-01-13T17:39:05.110Z,16.98
2023-01-13T17:41:31.999Z,16.38
2023-01-13T17:43:58.750Z,17.35
2023-01-13T17:46:25.613Z,16.45
2023-01-13T17:48:53.670Z,15.30
2023-01-13T17:51:22.636Z,15.65
2023-01-13T17:53:49.476Z,14.82
2023-01-13T17:56:17.258Z,15.23
2023-01-13T17:58:46.751Z,14.32
2023-01-13T18:01:26.590Z,14.20
2023-01-13T18:03:53.462Z,13.23
2023-01-13T18:06:23.128Z,15.43
2023-01-13T18:08:50.529Z,13.15
2023-01-13T18:11:19.851Z,12.57
2023-01-13T18:13:54.854Z,12.70
2023-01-13T18:16:21.920Z,13.68
2023-01-13T18:18:51.884Z,14.25
2023-01-13T18:21:42.638Z,14.45
2023-01-13T18:24:36.771Z,14.45
2023-01-13T18:27:18.784Z,13.43
2023-01-13T18:29:46.220Z,14.18
2023-01-13T18:32:13.379Z,13.35
2023-01-13T18:34:40.102Z,12.35
2023-01-13T18:37:08.929Z,13.90
2023-01-13T18:39:37.409Z,12.77
2023-01-13T18:42:34.708Z,13.35
2023-01-13T18:45:01.482Z,12.77
2023-01-13T18:47:30.400Z,13.00
2023-01-13T18:49:57.858Z,13.57
2023-01-13T18:52:25.338Z,15.43
2023-01-13T18:54:53.030Z,17.75
2023-01-13T18:57:21.443Z,16.40
2023-01-13T18:59:48.413Z,19.17
2023-01-13T19:02:18.436Z,17.50
2023-01-13T19:04:47.237Z,18.05
2023-01-13T19:07:21.912Z,18.58
2023-01-13T19:09:50.020Z,17.75
2023-01-13T19:12:25.770Z,18.38
2023-01-13T19:14:54.485Z,19.67
2023-01-13T19:17:22.753Z,21.35
2023-01-13T19:19:52.825Z,20.63
2023-01-13T19:22:29.780Z,19.08
2023-01-13T19:25:00.449Z,22.30
2023-01-13T19:27:27.795Z,21.52
2023-01-13T19:29:58.146Z,21.00
2023-01-13T19:32:25.181Z,20.00
2023-01-13T19:34:53.164Z,20.42
2023-01-13T19:37:19.967Z,19.50
2023-01-13T19:39:47.197Z,18.48
2023-01-13T19:42:32.939Z,20.48
2023-01-13T19:45:18.286Z,19.63
2023-01-13T19:47:45.943Z,19.25
2023-01-13T19:50:13.730Z,19.83
2023-01-13T19:52:43.634Z,19.25
2023-01-13T19:55:12.403Z,18.58
2023-01-13T19:57:40.189Z,17.90
2023-01-13T20:00:08.928Z,17.67
2023-01-13T20:02:36.975Z,17.45
2023-01-13T20:05:06.743Z,17.33
2023-01-13T20:07:35.063Z,17.05
2023-01-13T20:10:02.066Z,17.85
2023-01-13T20:12:29.606Z,16.70
2023-01-13T20:14:56.772Z,18.02
2023-01-13T20:19:52.468Z,16.35
2023-01-13T20:22:19.192Z,15.80
2023-01-13T20:24:46.082Z,16.83
2023-01-13T20:27:12.880Z,15.70
2023-01-13T20:29:39.692Z,15.98
2023-01-13T20:32:06.565Z,16.15
2023-01-13T20:34:33.621Z,15.60
2023-01-13T20:37:00.561Z,16.08
2023-01-13T20:39:28.023Z,17.23
2023-01-13T20:42:14.006Z,15.38
